createdAt,value
2018-05-08T00:01:43.515Z,5.77
2018-05-08T00:04:12.023Z,5.50
2018-05-08T00:06:40.569Z,5.47
2018-05-08T00:09:09.127Z,5.83
2018-05-08T00:11:37.877Z,5.43
2018-05-08T00:14:06.554Z,5.90
2018-05-08T00:16:35.085Z,5.20
2018-05-08T00:19:04.334Z,6.03
2018-05-08T00:21:32.839Z,5.57
2018-05-08T00:24:01.364Z,5.90
2018-05-08T00:26:29.889Z,6.27
2018-05-08T00:28:58.420Z,5.83
2018-05-08T00:31:26.943Z,5.70
2018-05-08T00:33:55.587Z,6.17
2018-05-08T00:36:24.142Z,5.80
2018-05-08T00:38:52.648Z,6.40
2018-05-08T00:41:21.133Z,5.80
2018-05-08T00:43:49.779Z,6.40
2018-05-08T00:46:18.400Z,6.00
2018-05-08T00:48:46.905Z,6.13
2018-05-08T00:51:15.440Z,6.33
2018-05-08T00:53:43.957Z,6.33
2018-05-08T00:56:12.451Z,6.10
2018-05-08T00:58:40.953Z,6.07
2018-05-08T01:01:09.462Z,6.40
2018-05-08T01:03:38.021Z,6.10
2018-05-08T01:06:06.546Z,6.07
2018-05-08T01:08:35.064Z,6.23
2018-05-08T01:11:03.557Z,6.10
2018-05-08T01:13:32.087Z,6.70
2018-05-08T01:16:00.664Z,6.33
2018-05-08T01:18:30.012Z,6.90
2018-05-08T01:20:58.541Z,6.43
2018-05-08T01:23:27.052Z,6.70
2018-05-08T01:25:55.654Z,6.77
2018-05-08T01:28:24.160Z,7.97
2018-05-08T01:30:52.643Z,7.63
2018-05-08T01:33:21.166Z,7.27
2018-05-08T01:35:49.860Z,6.70
2018-05-08T01:38:18.392Z,6.83
2018-05-08T01:40:47.809Z,6.87
2018-05-08T01:43:16.365Z,6.30
2018-05-08T01:45:44.878Z,7.00
2018-05-08T01:48:13.435Z,6.60
2018-05-08T01:50:41.965Z,6.67
2018-05-08T01:53:10.470Z,7.10
2018-05-08T01:55:38.995Z,7.40
2018-05-08T01:58:07.516Z,6.70
2018-05-08T02:00:36.881Z,7.60
2018-05-08T02:03:05.409Z,6.93
2018-05-08T02:05:33.918Z,7.20
2018-05-08T02:08:02.437Z,7.23
2018-05-08T02:10:30.995Z,7.90
2018-05-08T02:12:59.521Z,7.40
2018-05-08T02:15:28.102Z,7.23
2018-05-08T02:17:57.503Z,6.97
2018-05-08T02:20:26.098Z,7.50
2018-05-08T02:22:54.552Z,7.53
2018-05-08T02:25:23.075Z,8.17
2018-05-08T02:27:51.702Z,7.40
2018-05-08T02:30:20.201Z,7.33
2018-05-08T02:32:48.745Z,6.80
2018-05-08T02:35:17.433Z,7.03
2018-05-08T02:37:45.983Z,7.50
2018-05-08T02:40:14.507Z,6.87
2018-05-08T02:42:43.105Z,7.40
2018-05-08T02:45:11.612Z,7.23
2018-05-08T02:47:40.166Z,8.10
2018-05-08T02:50:08.711Z,8.13
2018-05-08T02:52:37.382Z,9.37
2018-05-08T02:55:05.878Z,9.10
2018-05-08T02:57:34.462Z,9.00
2018-05-08T03:00:02.997Z,9.17
2018-05-08T03:02:31.508Z,8.37
2018-05-08T03:05:00.765Z,8.47
2018-05-08T03:07:29.293Z,8.43
2018-05-08T03:09:58.561Z,9.20
2018-05-08T03:12:27.840Z,8.50
2018-05-08T03:14:56.334Z,8.27
2018-05-08T03:17:24.871Z,8.93
2018-05-08T03:19:53.420Z,7.20
2018-05-08T03:22:21.981Z,8.57
2018-05-08T03:24:50.455Z,8.63
2018-05-08T03:27:18.959Z,9.40
2018-05-08T03:29:47.569Z,8.20
2018-05-08T03:32:16.129Z,8.43
2018-05-08T03:34:44.703Z,7.50
2018-05-08T03:37:13.223Z,7.90
2018-05-08T03:39:41.731Z,7.10
2018-05-08T03:42:10.261Z,7.33
2018-05-08T03:44:39.520Z,7.57
2018-05-08T03:47:08.140Z,7.53
2018-05-08T03:49:36.651Z,7.57
2018-05-08T03:52:05.184Z,7.73
2018-05-08T03:54:34.538Z,7.97
2018-05-08T03:57:03.792Z,7.70
2018-05-08T03:59:33.138Z,7.30
2018-05-08T04:02:13.291Z,7.43
2018-05-08T04:04:54.428Z,7.30
2018-05-08T04:07:34.704Z,7.40
2018-05-08T04:10:04.170Z,6.63
2018-05-08T04:12:32.743Z,7.70
2018-05-08T04:15:01.585Z,14.43
2018-05-08T04:17:30.333Z,7.90
2018-05-08T04:19:59.173Z,7.57
2018-05-08T04:22:29.559Z,6.73
2018-05-08T04:24:58.350Z,6.80
2018-05-08T04:27:26.968Z,6.90
2018-05-08T04:29:55.594Z,7.50
2018-05-08T04:32:24.069Z,6.73
2018-05-08T04:34:52.574Z,7.33
2018-05-08T04:37:21.137Z,6.70
2018-05-08T04:39:49.672Z,5.73
2018-05-08T04:42:18.213Z,5.67
2018-05-08T04:44:46.717Z,6.17
2018-05-08T04:47:16.120Z,5.73
2018-05-08T04:49:44.625Z,5.53
2018-05-08T04:52:13.144Z,5.70
2018-05-08T04:54:41.692Z,5.80
2018-05-08T04:57:10.947Z,5.50
2018-05-08T04:59:39.478Z,4.80
2018-05-08T05:02:08.760Z,4.10
2018-05-08T05:04:37.280Z,4.30
2018-05-08T05:07:05.801Z,4.13
2018-05-08T05:09:34.334Z,3.60
2018-05-08T05:12:02.854Z,3.87
2018-05-08T05:14:31.374Z,3.90
2018-05-08T05:16:59.891Z,3.00
2018-05-08T05:19:28.378Z,2.90
2018-05-08T05:21:56.936Z,2.93
2018-05-08T05:24:25.507Z,2.47
2018-05-08T05:26:54.000Z,2.50
2018-05-08T05:29:22.610Z,2.43
2018-05-08T05:31:51.307Z,2.90
2018-05-08T05:34:19.816Z,2.50
2018-05-08T05:36:48.345Z,2.90
2018-05-08T05:39:16.873Z,2.60
2018-05-08T05:41:45.485Z,2.40
2018-05-08T05:44:14.879Z,2.73
2018-05-08T05:46:43.500Z,2.40
2018-05-08T05:49:12.008Z,2.47
2018-05-08T05:51:40.494Z,2.70
2018-05-08T05:54:09.091Z,2.47
2018-05-08T05:56:37.620Z,2.97
2018-05-08T05:59:06.164Z,3.07
2018-05-08T06:01:34.639Z,2.63
2018-05-08T06:04:03.165Z,2.80
2018-05-08T06:06:31.880Z,2.80
2018-05-08T06:09:00.349Z,2.90
2018-05-08T06:11:28.857Z,2.60
2018-05-08T06:13:58.102Z,2.60
2018-05-08T06:16:26.708Z,2.60
2018-05-08T06:18:55.257Z,2.50
2018-05-08T06:21:23.928Z,2.47
2018-05-08T06:23:52.677Z,2.40
2018-05-08T06:26:21.377Z,2.43
2018-05-08T06:28:49.878Z,2.40
2018-05-08T06:31:18.395Z,2.30
2018-05-08T06:33:47.027Z,2.60
2018-05-08T06:36:15.555Z,2.73
2018-05-08T06:38:44.827Z,2.43
2018-05-08T06:41:13.413Z,2.50
2018-05-08T06:43:42.017Z,2.30
2018-05-08T06:46:11.312Z,2.60
2018-05-08T06:48:40.591Z,2.40
2018-05-08T06:51:09.122Z,2.47
2018-05-08T06:53:37.623Z,2.60
2018-05-08T06:56:06.221Z,2.87
2018-05-08T06:58:34.736Z,2.80
2018-05-08T07:01:04.469Z,2.53
2018-05-08T07:03:33.748Z,2.72
2018-05-08T07:06:03.003Z,2.53
2018-05-08T07:08:31.604Z,2.50
2018-05-08T07:11:00.203Z,2.67
2018-05-08T07:13:28.702Z,2.60
2018-05-08T07:15:58.107Z,2.60
2018-05-08T07:18:26.606Z,2.80
2018-05-08T07:20:55.114Z,2.80
2018-05-08T07:23:23.623Z,2.60
2018-05-08T07:25:52.097Z,2.57
2018-05-08T07:28:20.624Z,2.70
2018-05-08T07:30:49.246Z,2.53
2018-05-08T07:33:17.802Z,2.90
2018-05-08T07:35:46.305Z,2.53
2018-05-08T07:38:14.838Z,2.63
2018-05-08T07:40:43.333Z,2.70
2018-05-08T07:43:12.025Z,3.03
2018-05-08T07:45:40.520Z,2.80
2018-05-08T07:48:09.143Z,3.00
2018-05-08T07:50:37.795Z,2.90
2018-05-08T07:53:06.265Z,3.00
2018-05-08T07:55:34.796Z,2.50
2018-05-08T07:58:03.416Z,2.77
2018-05-08T08:00:31.975Z,2.90
2018-05-08T08:03:00.511Z,3.03
2018-05-08T08:05:29.003Z,2.87
2018-05-08T08:07:57.500Z,3.13
2018-05-08T08:10:26.026Z,2.80
2018-05-08T08:12:54.539Z,3.43
2018-05-08T08:15:23.059Z,3.47
2018-05-08T08:17:51.580Z,3.47
2018-05-08T08:20:20.062Z,3.20
2018-05-08T08:22:48.613Z,3.33
2018-05-08T08:25:17.141Z,3.37
2018-05-08T08:27:45.948Z,2.97
2018-05-08T08:30:14.468Z,3.50
2018-05-08T08:32:43.847Z,3.30
2018-05-08T08:35:12.388Z,3.10
2018-05-08T08:37:40.896Z,3.40
2018-05-08T08:40:09.512Z,3.20
2018-05-08T08:42:38.158Z,3.67
2018-05-08T08:45:06.667Z,3.30
2018-05-08T08:47:35.223Z,3.17
2018-05-08T08:50:03.871Z,3.37
2018-05-08T08:52:32.398Z,3.40
2018-05-08T08:55:00.897Z,3.20
2018-05-08T08:57:30.177Z,3.67
2018-05-08T08:59:58.685Z,3.57
2018-05-08T09:02:27.173Z,3.10
2018-05-08T09:04:55.671Z,3.60
2018-05-08T09:07:25.040Z,3.40
2018-05-08T09:09:53.616Z,3.47
2018-05-08T09:12:22.166Z,3.10
2018-05-08T09:14:50.760Z,3.58
2018-05-08T09:17:19.289Z,3.17
2018-05-08T09:19:47.882Z,3.20
2018-05-08T09:22:16.408Z,3.40
2018-05-08T09:24:44.904Z,3.60
2018-05-08T09:27:13.390Z,3.20
2018-05-08T09:29:42.003Z,3.33
2018-05-08T09:32:10.504Z,3.33
2018-05-08T09:34:38.991Z,3.17
2018-05-08T09:37:07.471Z,3.00
2018-05-08T09:39:36.104Z,3.40
2018-05-08T09:42:04.630Z,3.23
2018-05-08T09:44:33.227Z,3.30
2018-05-08T09:47:01.743Z,3.30
2018-05-08T09:49:30.244Z,3.50
2018-05-08T09:51:58.773Z,3.27
2018-05-08T09:54:27.302Z,3.30
2018-05-08T09:56:55.896Z,3.40
2018-05-08T09:59:24.400Z,3.30
2018-05-08T10:01:52.945Z,3.50
2018-05-08T10:04:21.510Z,2.93
2018-05-08T10:06:50.022Z,3.53
2018-05-08T10:09:20.199Z,3.63
2018-05-08T10:11:48.692Z,3.17
2018-05-08T10:14:17.323Z,3.70
2018-05-08T10:16:45.825Z,3.70
2018-05-08T10:19:14.434Z,3.90
2018-05-08T10:21:43.008Z,3.83
2018-05-08T10:24:11.490Z,3.70
2018-05-08T10:26:40.085Z,4.00
2018-05-08T10:29:09.633Z,4.00
2018-05-08T10:31:38.195Z,3.40
2018-05-08T10:34:06.708Z,4.10
2018-05-08T10:36:35.256Z,4.20
2018-05-08T10:39:03.876Z,4.20
2018-05-08T10:41:33.364Z,3.90
2018-05-08T10:44:01.888Z,3.80
2018-05-08T10:46:30.438Z,3.90
2018-05-08T10:48:58.946Z,4.40
2018-05-08T10:51:27.479Z,4.60
2018-05-08T10:53:55.981Z,3.73
2018-05-08T10:56:24.500Z,3.50
2018-05-08T10:58:53.105Z,3.50
2018-05-08T11:01:21.584Z,3.50
2018-05-08T11:03:50.087Z,3.53
2018-05-08T11:06:18.590Z,3.60
2018-05-08T11:08:47.227Z,3.60
2018-05-08T11:11:15.756Z,3.33
2018-05-08T11:13:44.351Z,3.27
2018-05-08T11:16:12.873Z,3.20
2018-05-08T11:18:41.486Z,3.60
2018-05-08T11:21:10.269Z,3.20
2018-05-08T11:23:38.756Z,3.50
2018-05-08T11:26:07.315Z,3.40
2018-05-08T11:28:35.789Z,3.60
2018-05-08T11:31:04.369Z,3.33
2018-05-08T11:33:32.869Z,3.27
2018-05-08T11:36:01.399Z,3.10
2018-05-08T11:38:30.776Z,3.30
2018-05-08T11:40:59.352Z,3.57
2018-05-08T11:43:27.847Z,3.53
2018-05-08T11:45:56.359Z,3.10
2018-05-08T11:48:24.833Z,3.20
2018-05-08T11:50:53.341Z,3.27
2018-05-08T11:53:21.878Z,3.00
2018-05-08T11:55:50.800Z,2.70
2018-05-08T11:58:19.304Z,2.90
2018-05-08T12:00:47.927Z,3.00
2018-05-08T12:03:16.486Z,2.93
2018-05-08T12:05:44.973Z,3.30
2018-05-08T12:08:13.483Z,3.10
2018-05-08T12:10:41.971Z,2.80
2018-05-08T12:13:10.510Z,2.60
2018-05-08T12:15:39.036Z,2.80
2018-05-08T12:18:07.816Z,2.70
2018-05-08T12:20:36.413Z,2.90
2018-05-08T12:23:04.933Z,2.70
2018-05-08T12:25:33.420Z,2.67
2018-05-08T12:28:01.923Z,2.20
2018-05-08T12:30:30.433Z,2.27
2018-05-08T12:32:58.928Z,2.40
2018-05-08T12:35:28.488Z,2.50
2018-05-08T12:37:57.058Z,2.63
2018-05-08T12:40:25.572Z,2.50
2018-05-08T12:42:54.246Z,2.40
2018-05-08T12:45:22.843Z,2.37
2018-05-08T12:47:51.353Z,2.40
2018-05-08T12:50:19.902Z,2.30
2018-05-08T12:52:48.519Z,2.30
2018-05-08T12:55:17.056Z,5.03
2018-05-08T12:57:46.489Z,3.57
2018-05-08T13:00:15.034Z,2.47
2018-05-08T13:02:43.795Z,2.50
2018-05-08T13:05:12.233Z,2.50
2018-05-08T13:07:40.747Z,2.37
2018-05-08T13:10:10.447Z,2.60
2018-05-08T13:12:39.863Z,2.47
2018-05-08T13:15:08.386Z,2.50
2018-05-08T13:17:36.907Z,2.27
2018-05-08T13:20:06.167Z,2.00
2018-05-08T13:22:34.696Z,2.03
2018-05-08T13:25:03.983Z,2.33
2018-05-08T13:27:32.520Z,2.30
2018-05-08T13:30:01.025Z,2.30
2018-05-08T13:32:29.644Z,2.50
2018-05-08T13:34:58.895Z,2.10
2018-05-08T13:37:27.594Z,2.30
2018-05-08T13:39:56.156Z,2.30
2018-05-08T13:42:24.671Z,2.17
2018-05-08T13:44:53.178Z,2.10
2018-05-08T13:47:21.688Z,2.03
2018-05-08T13:49:50.304Z,1.90
2018-05-08T13:52:18.823Z,1.90
2018-05-08T13:54:47.326Z,1.93
2018-05-08T13:57:15.854Z,2.05
2018-05-08T13:59:44.342Z,2.20
2018-05-08T14:02:12.955Z,2.20
2018-05-08T14:04:41.499Z,2.23
2018-05-08T14:07:09.989Z,2.40
2018-05-08T14:09:38.630Z,1.98
2018-05-08T14:12:07.253Z,1.80
2018-05-08T14:14:35.752Z,1.80
2018-05-08T14:17:04.243Z,2.27
2018-05-08T14:19:32.869Z,2.10
2018-05-08T14:22:01.377Z,2.00
2018-05-08T14:24:29.918Z,1.90
2018-05-08T14:26:58.462Z,2.20
2018-05-08T14:29:26.984Z,1.90
2018-05-08T14:31:55.556Z,1.80
2018-05-08T14:34:24.059Z,2.00
2018-05-08T14:36:52.775Z,2.03
2018-05-08T14:39:21.325Z,2.17
2018-05-08T14:41:49.856Z,1.90
2018-05-08T14:44:18.377Z,2.03
2018-05-08T14:46:47.115Z,1.90
2018-05-08T14:49:15.784Z,2.10
2018-05-08T14:51:44.312Z,2.00
2018-05-08T14:54:12.807Z,1.97
2018-05-08T14:56:41.339Z,2.00
2018-05-08T14:59:09.938Z,2.10
2018-05-08T15:01:38.418Z,2.20
2018-05-08T15:04:06.955Z,2.17
2018-05-08T15:06:35.482Z,2.00
2018-05-08T15:09:04.068Z,2.03
2018-05-08T15:11:33.388Z,2.40
2018-05-08T15:14:02.707Z,2.10
2018-05-08T15:16:31.250Z,2.20
2018-05-08T15:18:59.920Z,2.00
2018-05-08T15:21:28.460Z,2.07
2018-05-08T15:23:57.074Z,2.47
2018-05-08T15:26:25.675Z,2.43
2018-05-08T15:28:54.202Z,2.23
2018-05-08T15:31:22.701Z,2.40
2018-05-08T15:33:51.228Z,2.37
2018-05-08T15:36:19.781Z,2.20
2018-05-08T15:38:48.274Z,2.23
2018-05-08T15:41:16.785Z,2.27
2018-05-08T15:43:45.300Z,2.20
2018-05-08T15:46:13.860Z,2.20
2018-05-08T15:48:42.381Z,2.30
2018-05-08T15:51:10.899Z,2.57
2018-05-08T15:53:39.396Z,2.30
2018-05-08T15:56:08.696Z,2.53
2018-05-08T15:58:37.229Z,2.60
2018-05-08T16:01:05.735Z,2.53
2018-05-08T16:03:34.374Z,2.50
2018-05-08T16:06:02.883Z,2.53
2018-05-08T16:08:31.505Z,2.50
2018-05-08T16:11:00.004Z,2.57
2018-05-08T16:13:29.268Z,2.30
2018-05-08T16:15:57.778Z,2.30
2018-05-08T16:18:27.039Z,2.50
2018-05-08T16:20:56.345Z,2.40
2018-05-08T16:23:24.894Z,2.27
2018-05-08T16:25:53.500Z,2.20
2018-05-08T16:28:22.098Z,2.50
2018-05-08T16:30:50.633Z,2.60
2018-05-08T16:33:19.120Z,2.70
2018-05-08T16:35:47.596Z,3.10
2018-05-08T16:38:16.235Z,2.90
2018-05-08T16:40:44.795Z,2.80
2018-05-08T16:43:13.307Z,2.73
2018-05-08T16:45:41.815Z,2.70
2018-05-08T16:48:10.308Z,2.93
2018-05-08T16:50:38.822Z,2.73
2018-05-08T16:53:07.371Z,2.57
2018-05-08T16:55:35.994Z,2.83
2018-05-08T16:58:04.512Z,3.63
2018-05-08T17:00:33.094Z,2.63
2018-05-08T17:03:01.794Z,3.53
2018-05-08T17:05:30.346Z,2.83
2018-05-08T17:07:58.855Z,2.47
2018-05-08T17:10:27.378Z,2.40
2018-05-08T17:12:55.935Z,2.50
2018-05-08T17:15:24.604Z,2.70
2018-05-08T17:17:53.110Z,2.93
2018-05-08T17:20:21.670Z,2.67
2018-05-08T17:22:50.180Z,2.60
2018-05-08T17:25:18.792Z,2.60
2018-05-08T17:27:47.290Z,2.50
2018-05-08T17:30:15.833Z,2.53
2018-05-08T17:32:44.327Z,2.60
2018-05-08T17:35:12.947Z,2.40
2018-05-08T17:37:41.523Z,2.50
2018-05-08T17:40:10.037Z,2.80
2018-05-08T17:42:38.560Z,2.63
2018-05-08T17:45:07.086Z,2.60
2018-05-08T17:47:35.723Z,2.77
2018-05-08T17:50:04.319Z,2.67
2018-05-08T17:52:33.701Z,2.73
2018-05-08T17:55:02.198Z,2.40
2018-05-08T17:57:30.738Z,2.70
2018-05-08T17:59:59.356Z,2.57
2018-05-08T18:02:27.844Z,2.50
2018-05-08T18:04:56.439Z,2.70
2018-05-08T18:07:25.780Z,2.53
2018-05-08T18:09:55.339Z,2.60
2018-05-08T18:12:23.844Z,2.77
2018-05-08T18:14:52.347Z,2.40
2018-05-08T18:17:20.954Z,2.40
2018-05-08T18:19:50.280Z,2.50
2018-05-08T18:22:18.795Z,2.17
2018-05-08T18:24:47.324Z,2.20
2018-05-08T18:27:15.943Z,2.20
2018-05-08T18:29:44.437Z,2.30
2018-05-08T18:32:12.966Z,2.20
2018-05-08T18:34:41.585Z,2.20
2018-05-08T18:37:10.262Z,2.30
2018-05-08T18:39:38.848Z,2.20
2018-05-08T18:42:07.379Z,2.37
2018-05-08T18:44:35.889Z,2.00
2018-05-08T18:47:04.395Z,2.10
2018-05-08T18:49:33.313Z,2.40
2018-05-08T18:52:01.787Z,2.50
2018-05-08T18:54:30.373Z,2.37
2018-05-08T18:56:58.917Z,2.30
2018-05-08T18:59:27.437Z,2.58
2018-05-08T19:01:55.941Z,2.37
2018-05-08T19:04:24.553Z,2.40
2018-05-08T19:06:53.120Z,2.40
2018-05-08T19:09:21.633Z,2.40
2018-05-08T19:11:50.188Z,2.43
2018-05-08T19:14:18.747Z,2.47
2018-05-08T19:16:47.297Z,2.40
2018-05-08T19:19:21.413Z,2.40
2018-05-08T19:21:49.914Z,2.43
2018-05-08T19:24:24.128Z,2.70
2018-05-08T19:26:52.741Z,2.47
2018-05-08T19:29:27.785Z,2.70
2018-05-08T19:31:56.348Z,2.30
2018-05-08T19:34:24.927Z,2.67
2018-05-08T19:36:59.965Z,2.50
2018-05-08T19:39:29.344Z,2.53
2018-05-08T19:41:57.857Z,2.50
2018-05-08T19:44:26.502Z,2.50
2018-05-08T19:46:55.016Z,2.60
2018-05-08T19:49:23.572Z,2.60
2018-05-08T19:51:52.104Z,2.77
2018-05-08T19:54:20.604Z,2.90
2018-05-08T19:56:49.124Z,2.90
2018-05-08T19:59:17.666Z,2.70
2018-05-08T20:01:46.284Z,2.60
2018-05-08T20:04:14.820Z,2.60
2018-05-08T20:06:43.494Z,2.70
2018-05-08T20:09:12.033Z,2.57
2018-05-08T20:11:41.343Z,3.00
2018-05-08T20:14:09.974Z,2.70
2018-05-08T20:16:38.493Z,2.40
2018-05-08T20:19:07.751Z,2.90
2018-05-08T20:21:36.301Z,2.70
2018-05-08T20:24:04.814Z,2.90
2018-05-08T20:26:33.340Z,2.70
2018-05-08T20:29:01.854Z,3.20
2018-05-08T20:31:30.337Z,3.10
2018-05-08T20:33:58.842Z,2.90
2018-05-08T20:36:27.466Z,3.00
2018-05-08T20:38:56.671Z,2.97
2018-05-08T20:41:25.302Z,2.83
2018-05-08T20:43:54.714Z,2.97
2018-05-08T20:46:23.345Z,2.73
2018-05-08T20:48:51.864Z,2.87
2018-05-08T20:51:20.379Z,2.80
2018-05-08T20:53:48.974Z,2.80
2018-05-08T20:56:17.494Z,2.90
2018-05-08T20:58:46.104Z,2.97
2018-05-08T21:01:15.462Z,3.17
2018-05-08T21:03:44.098Z,3.10
2018-05-08T21:06:12.650Z,3.17
2018-05-08T21:08:41.154Z,3.30
2018-05-08T21:11:09.666Z,3.10
2018-05-08T21:13:38.189Z,3.30
2018-05-08T21:16:06.730Z,3.27
2018-05-08T21:18:35.348Z,2.90
2018-05-08T21:21:04.238Z,2.90
2018-05-08T21:23:32.739Z,3.13
2018-05-08T21:26:01.240Z,3.20
2018-05-08T21:28:35.464Z,3.10
2018-05-08T21:31:09.468Z,2.73
2018-05-08T21:33:38.071Z,3.17
2018-05-08T21:36:06.583Z,3.47
2018-05-08T21:38:35.094Z,3.00
2018-05-08T21:41:03.707Z,3.30
2018-05-08T21:43:32.218Z,3.23
2018-05-08T21:46:00.853Z,2.93
2018-05-08T21:48:30.124Z,2.97
2018-05-08T21:50:58.650Z,3.17
2018-05-08T21:53:27.157Z,3.10
2018-05-08T21:55:55.780Z,2.97
2018-05-08T21:58:24.322Z,3.40
2018-05-08T22:00:52.816Z,3.00
2018-05-08T22:03:21.330Z,2.90
2018-05-08T22:05:49.893Z,3.37
2018-05-08T22:08:18.450Z,3.03
2018-05-08T22:10:46.951Z,3.27
2018-05-08T22:13:15.467Z,3.20
2018-05-08T22:15:43.961Z,2.87
2018-05-08T22:18:12.439Z,3.03
2018-05-08T22:20:40.942Z,3.03
2018-05-08T22:23:10.284Z,3.00
2018-05-08T22:25:38.866Z,2.97
2018-05-08T22:28:07.370Z,3.00
2018-05-08T22:30:35.879Z,3.00
2018-05-08T22:33:04.400Z,3.00
2018-05-08T22:35:32.894Z,3.03
2018-05-08T22:38:01.370Z,3.33
2018-05-08T22:40:30.683Z,3.33
2018-05-08T22:42:59.375Z,3.10
2018-05-08T22:45:27.868Z,3.13
2018-05-08T22:47:56.381Z,3.03
2018-05-08T22:50:24.865Z,3.27
2018-05-08T22:52:53.364Z,2.97
2018-05-08T22:55:21.882Z,3.10
2018-05-08T22:57:50.375Z,3.15
2018-05-08T23:00:19.943Z,3.40
2018-05-08T23:02:48.238Z,3.17
2018-05-08T23:05:16.768Z,3.20
2018-05-08T23:07:45.360Z,3.57
2018-05-08T23:10:13.945Z,3.23
2018-05-08T23:12:42.471Z,3.03
2018-05-08T23:15:10.963Z,3.30
2018-05-08T23:17:39.484Z,3.30
2018-05-08T23:20:08.123Z,3.90
2018-05-08T23:22:36.601Z,3.40
2018-05-08T23:25:05.146Z,3.30
2018-05-08T23:27:33.812Z,3.53
2018-05-08T23:30:02.294Z,3.70
2018-05-08T23:32:30.886Z,3.70
2018-05-08T23:34:59.459Z,3.80
2018-05-08T23:37:27.952Z,3.80
2018-05-08T23:39:56.470Z,3.80
2018-05-08T23:42:25.760Z,3.80
2018-05-08T23:44:54.306Z,3.90
2018-05-08T23:47:22.885Z,3.93
2018-05-08T23:49:51.491Z,3.73
2018-05-08T23:52:19.991Z,3.60
2018-05-08T23:54:48.529Z,4.00
2018-05-08T23:57:17.018Z,3.97
2018-05-08T23:59:45.527Z,3.50
